Observation data for Jayton on 02/22/2019      Previous  Date  Next       Current Mesonet Observations  Soil Data  Daily Summary Page  Observations in Plain Language
KJTS 220600Z 09008KT 04/M00 A2993 RMK A01 T00351001  RH  078%=      5-min Rain = 0
KJTS 220605Z 10008KT 03/M00 A2993 RMK A01 T00341001  RH  079%=      5-min Rain = 0
KJTS 220610Z 09008KT 03/M00 A2993 RMK A01 T00321001  RH  080%=      5-min Rain = 0
KJTS 220615Z 09007KT 03/M00 A2993 RMK A01 T00301002  RH  080%=      5-min Rain = 0
KJTS 220620Z 09008KT 03/M00 A2993 RMK A01 T00281002  RH  081%=      5-min Rain = 0
KJTS 220625Z 09009KT 03/M00 A2992 RMK A01 T00281002  RH  082%=      5-min Rain = 0
KJTS 220630Z 09009KT 03/M00 A2992 RMK A01 T00281001  RH  082%=      5-min Rain = 0
KJTS 220635Z 10010KT 03/M00 A2992 RMK A01 T00281001  RH  082%=      5-min Rain = 0
KJTS 220640Z 10010KT 03/M00 A2992 RMK A01 T00271001  RH  083%=      5-min Rain = 0
KJTS 220645Z 10011KT 03/00 A2991 RMK A01 T00270001  RH  083%=      5-min Rain = 0
KJTS 220650Z 09010KT 03/00 A2991 RMK A01 T00280001  RH  084%=      5-min Rain = 0
KJTS 220655Z 09008KT 03/00 A2992 RMK A01 T00280001  RH  084%=      5-min Rain = 0
KJTS 220700Z 09008KT 03/00 A2993 RMK A01 T00260001  RH  084%=      5-min Rain = 0
KJTS 220705Z 08008KT 03/00 A2992 RMK A01 T00260001  RH  085%=      5-min Rain = 0
KJTS 220710Z 09009KT 03/00 A2992 RMK A01 T00270002  RH  085%=      5-min Rain = 0
KJTS 220715Z 09009KT 03/00 A2992 RMK A01 T00260002  RH  085%=      5-min Rain = 0
KJTS 220720Z 08008KT 03/00 A2992 RMK A01 T00270003  RH  085%=      5-min Rain = 0
KJTS 220725Z 08007KT 03/01 A2992 RMK A01 T00290005  RH  085%=      5-min Rain = 0
KJTS 220730Z 08007KT 03/01 A2992 RMK A01 T00300005  RH  084%=      5-min Rain = 0
KJTS 220735Z 08008KT 03/01 A2991 RMK A01 T00320007  RH  084%=      5-min Rain = 0
KJTS 220740Z 09008KT 04/01 A2991 RMK A01 T00350008  RH  084%=      5-min Rain = 0
KJTS 220745Z 09008KT 04/01 A2991 RMK A01 T00370009  RH  083%=      5-min Rain = 0
KJTS 220750Z 08008KT 04/01 A2991 RMK A01 T00380010  RH  083%=      5-min Rain = 0
KJTS 220755Z 08008KT 04/01 A2991 RMK A01 T00380011  RH  084%=      5-min Rain = 0
KJTS 220800Z 08008KT 04/02 A2991 RMK A01 T00390015  RH  086%=      5-min Rain = 0
KJTS 220805Z 08006KT 04/02 A2991 RMK A01 T00390015  RH  086%=      5-min Rain = 0
KJTS 220810Z 07006KT 04/01 A2991 RMK A01 T00390014  RH  085%=      5-min Rain = 0
KJTS 220815Z 06005KT 04/01 A299 RMK A01 T00380012  RH  085%=      5-min Rain = 0
KJTS 220820Z 05005KT 04/01 A299 RMK A01 T00370011  RH  084%=      5-min Rain = 0
KJTS 220825Z 04005KT 04/01 A299 RMK A01 T00370011  RH  084%=      5-min Rain = 0
KJTS 220830Z 05005KT 04/01 A299 RMK A01 T00370010  RH  084%=      5-min Rain = 0
KJTS 220835Z 06006KT 04/01 A299 RMK A01 T00370011  RH  084%=      5-min Rain = 0
KJTS 220840Z 06006KT 04/01 A2991 RMK A01 T00370011  RH  084%=      5-min Rain = 0
KJTS 220845Z 06006KT 04/01 A2991 RMK A01 T00370010  RH  084%=      5-min Rain = 0
KJTS 220850Z 07004KT 04/01 A2991 RMK A01 T00370010  RH  084%=      5-min Rain = 0
KJTS 220855Z 06005KT 04/01 A2991 RMK A01 T00370010  RH  083%=      5-min Rain = 0
KJTS 220900Z 06005KT 04/01 A2991 RMK A01 T00370010  RH  084%=      5-min Rain = 0
KJTS 220905Z 06005KT 04/01 A2991 RMK A01 T00360009  RH  084%=      5-min Rain = 0
KJTS 220910Z 06005KT 04/01 A299 RMK A01 T00360009  RH  084%=      5-min Rain = 0
KJTS 220915Z 06004KT 04/01 A2991 RMK A01 T00370010  RH  084%=      5-min Rain = 0
KJTS 220920Z 06004KT 04/01 A2991 RMK A01 T00370011  RH  084%=      5-min Rain = 0
KJTS 220925Z 06005KT 04/01 A2991 RMK A01 T00380011  RH  084%=      5-min Rain = 0
KJTS 220930Z 05005KT 04/01 A2991 RMK A01 T00380012  RH  084%=      5-min Rain = 0
KJTS 220935Z 05005KT 04/01 A299 RMK A01 T00390012  RH  084%=      5-min Rain = 0
KJTS 220940Z 05006KT 04/01 A2991 RMK A01 T00390013  RH  084%=      5-min Rain = 0
KJTS 220945Z 05005KT 04/01 A2991 RMK A01 T00400014  RH  085%=      5-min Rain = 0
KJTS 220950Z 05006KT 04/02 A2991 RMK A01 T00410015  RH  085%=      5-min Rain = 0
KJTS 220955Z 05006KT 04/02 A2991 RMK A01 T00410017  RH  086%=      5-min Rain = 0
KJTS 221000Z 05005KT 04/02 A2991 RMK A01 T00420019  RH  086%=      5-min Rain = 0
KJTS 221005Z 05007KT 04/02 A2991 RMK A01 T00430020  RH  087%=      5-min Rain = 0
KJTS 221010Z 04006KT 04/02 A2992 RMK A01 T00420019  RH  086%=      5-min Rain = 0
KJTS 221015Z 05005KT 04/02 A2992 RMK A01 T00410019  RH  087%=      5-min Rain = 0
KJTS 221020Z 06006KT 04/02 A2992 RMK A01 T00410020  RH  088%=      5-min Rain = 0
KJTS 221025Z 06006KT 04/02 A2992 RMK A01 T00400021  RH  089%=      5-min Rain = 0
KJTS 221030Z 06006KT 04/02 A2993 RMK A01 T00390023  RH  090%=      5-min Rain = 0
KJTS 221035Z 06007KT 04/02 A2993 RMK A01 T00380024  RH  092%=      5-min Rain = 0
KJTS 221040Z 06007KT 04/03 A2993 RMK A01 T00370025  RH  093%=      5-min Rain = 0
KJTS 221045Z 07006KT 04/03 A2993 RMK A01 T00370026  RH  094%=      5-min Rain = 0
KJTS 221050Z 06005KT 04/03 A2993 RMK A01 T00370027  RH  095%=      5-min Rain = 0
KJTS 221055Z 06005KT 04/03 A2993 RMK A01 T00370027  RH  095%=      5-min Rain = 0
KJTS 221100Z 05005KT 04/03 A2993 RMK A01 T00360027  RH  096%=      5-min Rain = 0
KJTS 221105Z 05006KT 04/03 A2993 RMK A01 T00360028  RH  096%=      5-min Rain = 0
KJTS 221110Z 04006KT 04/03 A2993 RMK A01 T00360028  RH  096%=      5-min Rain = 0
KJTS 221115Z 05006KT 04/03 A2994 RMK A01 T00370029  RH  096%=      5-min Rain = 0
KJTS 221120Z 06006KT 04/03 A2994 RMK A01 T00370029  RH  097%=      5-min Rain = 0
KJTS 221125Z 06006KT 04/03 A2994 RMK A01 T00370030  RH  097%=      5-min Rain = 0
KJTS 221130Z 06006KT 04/03 A2994 RMK A01 T00370031  RH  097%=      5-min Rain = 0
KJTS 221135Z 06006KT 04/03 A2994 RMK A01 T00370031  RH  097%=      5-min Rain = 0
KJTS 221140Z 05007KT 04/03 A2994 RMK A01 T00370031  RH  097%=      5-min Rain = 0
KJTS 221145Z 05006KT 04/03 A2994 RMK A01 T00370031  RH  097%=      5-min Rain = 0
KJTS 221150Z 06006KT 04/03 A2994 RMK A01 T00380032  RH  098%=      5-min Rain = 0
KJTS 221155Z 05007KT 04/03 A2995 RMK A01 T00380032  RH  098%=      5-min Rain = 0
KJTS 221200Z 06007KT 04/03 A2995 RMK A01 T00380032  RH  098%=      5-min Rain = 0
KJTS 221205Z 06008KT 04/03 A2995 RMK A01 T00380032  RH  098%=      5-min Rain = 0
KJTS 221210Z 06009KT 04/03 A2994 RMK A01 T00370032  RH  098%=      5-min Rain = 0
KJTS 221215Z 07008KT 04/03 A2995 RMK A01 T00370032  RH  098%=      5-min Rain = 0
KJTS 221220Z 06008KT 04/03 A2995 RMK A01 T00380032  RH  098%=      5-min Rain = 0
KJTS 221225Z 06007KT 04/03 A2996 RMK A01 T00380033  RH  098%=      5-min Rain = 0
KJTS 221230Z 06006KT 04/03 A2996 RMK A01 T00380033  RH  098%=      5-min Rain = 0
KJTS 221235Z 06007KT 04/03 A2997 RMK A01 T00380033  RH  098%=      5-min Rain = 0
KJTS 221240Z 05007KT 04/03 A2997 RMK A01 T00390033  RH  098%=      5-min Rain = 0
KJTS 221245Z 05008KT 04/03 A2997 RMK A01 T00390034  RH  098%=      5-min Rain = 0
KJTS 221250Z 04006KT 04/03 A2996 RMK A01 T00390034  RH  098%=      5-min Rain = 0
KJTS 221255Z 03007KT 04/03 A2996 RMK A01 T00390034  RH  098%=      5-min Rain = 0
KJTS 221300Z 04008KT 04/03 A2996 RMK A01 T00380033  RH  098%=      5-min Rain = 0
KJTS 221305Z 04008KT 04/03 A2995 RMK A01 T00380033  RH  098%=      5-min Rain = 0
KJTS 221310Z 05008KT 04/03 A2995 RMK A01 T00370033  RH  098%=      5-min Rain = 0
KJTS 221315Z 05007KT 04/03 A2996 RMK A01 T00370032  RH  098%=      5-min Rain = 0
KJTS 221320Z 04007KT 04/03 A2995 RMK A01 T00370033  RH  098%=      5-min Rain = 0
KJTS 221325Z 05007KT 04/03 A2996 RMK A01 T00370033  RH  098%=      5-min Rain = 0
KJTS 221330Z 05009KT 04/03 A2996 RMK A01 T00370033  RH  098%=      5-min Rain = 0
KJTS 221335Z 05008KT 04/03 A2996 RMK A01 T00370033  RH  099%=      5-min Rain = 0
KJTS 221340Z 05008KT 04/03 A2996 RMK A01 T00380033  RH  099%=      5-min Rain = 0
KJTS 221345Z 05007KT 04/03 A2996 RMK A01 T00380033  RH  099%=      5-min Rain = 0
KJTS 221350Z 05008KT 04/03 A2996 RMK A01 T00380033  RH  099%=      5-min Rain = 0
KJTS 221355Z 04007KT 04/03 A2996 RMK A01 T00380034  RH  099%=      5-min Rain = 0
KJTS 221400Z 05006KT 04/03 A2996 RMK A01 T00380034  RH  099%=      5-min Rain = 0
KJTS 221405Z 05007KT 04/03 A2996 RMK A01 T00380034  RH  099%=      5-min Rain = 0
KJTS 221410Z 05007KT 04/03 A2996 RMK A01 T00390034  RH  099%=      5-min Rain = 0
KJTS 221415Z 05007KT 04/03 A2996 RMK A01 T00390034  RH  099%=      5-min Rain = 0
KJTS 221420Z 05007KT 04/04 A2996 RMK A01 T00390035  RH  099%=      5-min Rain = 0
KJTS 221425Z 05006KT 04/04 A2996 RMK A01 T00400035  RH  099%=      5-min Rain = 0
KJTS 221430Z 05006KT 04/04 A2996 RMK A01 T00410036  RH  099%=      5-min Rain = 0
KJTS 221435Z 04007KT 04/04 A2997 RMK A01 T00400036  RH  099%=      5-min Rain = 0
KJTS 221440Z 04007KT 04/04 A2997 RMK A01 T00400036  RH  099%=      5-min Rain = 0
KJTS 221445Z 05007KT 04/04 A2997 RMK A01 T00410037  RH  099%=      5-min Rain = 0
KJTS 221450Z 05007KT 04/04 A2998 RMK A01 T00420038  RH  099%=      5-min Rain = 0
KJTS 221455Z 05006KT 04/04 A2998 RMK A01 T00430038  RH  099%=      5-min Rain = 0
KJTS 221500Z 05007KT 04/04 A2998 RMK A01 T00430038  RH  099%=      5-min Rain = 0
KJTS 221505Z 05007KT 04/04 A2999 RMK A01 T00430039  RH  099%=      5-min Rain = 0
KJTS 221510Z 05006KT 04/04 A2999 RMK A01 T00440039  RH  099%=      5-min Rain = 0
KJTS 221515Z 05006KT 04/04 A2999 RMK A01 T00440040  RH  099%=      5-min Rain = 0
KJTS 221520Z 05006KT 05/04 A2999 RMK A01 T00450040  RH  099%=      5-min Rain = 0
KJTS 221525Z 06005KT 05/04 A2999 RMK A01 T00450041  RH  099%=      5-min Rain = 0
KJTS 221530Z 07006KT 05/04 A2999 RMK A01 T00460041  RH  099%=      5-min Rain = 0
KJTS 221535Z 08006KT 05/04 A2999 RMK A01 T00470043  RH  099%=      5-min Rain = 0
KJTS 221540Z 08006KT 05/04 A2999 RMK A01 T00480044  RH  099%=      5-min Rain = 0
KJTS 221545Z 07005KT 05/05 A2999 RMK A01 T00500045  RH  099%=      5-min Rain = 0
KJTS 221550Z 06004KT 05/05 A2999 RMK A01 T00510046  RH  099%=      5-min Rain = 0
KJTS 221555Z 06004KT 05/05 A2999 RMK A01 T00500045  RH  099%=      5-min Rain = 0
KJTS 221600Z 06003KT 05/05 A2999 RMK A01 T00510046  RH  099%=      5-min Rain = 0
KJTS 221605Z 04003KT 05/05 A2999 RMK A01 T00510047  RH  099%=      5-min Rain = 0
KJTS 221610Z 02003KT 05/05 A2999 RMK A01 T00520048  RH  099%=      5-min Rain = 0.01
KJTS 221615Z 02003KT 05/05 A2998 RMK A01 T00530048  RH  099%=      5-min Rain = 0
KJTS 221620Z 02003KT 05/05 A2998 RMK A01 T00530049  RH  099%=      5-min Rain = 0
KJTS 221625Z 02003KT 06/05 A2998 RMK A01 T00550050  RH  099%=      5-min Rain = 0
KJTS 221630Z 02003KT 06/05 A2998 RMK A01 T00550050  RH  099%=      5-min Rain = 0
KJTS 221635Z 03003KT 06/05 A2997 RMK A01 T00550050  RH  099%=      5-min Rain = 0
KJTS 221640Z 03004KT 06/05 A2997 RMK A01 T00560051  RH  099%=      5-min Rain = 0
KJTS 221645Z 03004KT 06/05 A2997 RMK A01 T00570052  RH  099%=      5-min Rain = 0
KJTS 221650Z 04005KT 06/05 A2997 RMK A01 T00570052  RH  099%=      5-min Rain = 0
KJTS 221655Z 04004KT 06/05 A2996 RMK A01 T00580053  RH  099%=      5-min Rain = 0
KJTS 221700Z 04003KT 06/05 A2996 RMK A01 T00590054  RH  099%=      5-min Rain = 0
KJTS 221705Z 06004KT 06/06 A2996 RMK A01 T00610056  RH  099%=      5-min Rain = 0
KJTS 221710Z 05003KT 06/06 A2996 RMK A01 T00610056  RH  099%=      5-min Rain = 0
KJTS 221715Z 07005KT 06/06 A2996 RMK A01 T00630058  RH  099%=      5-min Rain = 0
KJTS 221720Z 06004KT 06/06 A2996 RMK A01 T00620057  RH  099%=      5-min Rain = 0
KJTS 221725Z 04005KT 06/06 A2996 RMK A01 T00610056  RH  099%=      5-min Rain = 0
KJTS 221730Z 03004KT 06/06 A2995 RMK A01 T00610056  RH  099%=      5-min Rain = 0
KJTS 221735Z 05005KT 06/06 A2995 RMK A01 T00610056  RH  099%=      5-min Rain = 0
KJTS 221740Z 04004KT 06/06 A2995 RMK A01 T00610056  RH  099%=      5-min Rain = 0
KJTS 221745Z 04004KT 06/06 A2995 RMK A01 T00620057  RH  099%=      5-min Rain = 0
KJTS 221750Z 05003KT 06/06 A2995 RMK A01 T00630058  RH  099%=      5-min Rain = 0
KJTS 221755Z 04004KT 06/06 A2995 RMK A01 T00640058  RH  099%=      5-min Rain = 0
KJTS 221800Z 06004KT 06/06 A2995 RMK A01 T00640059  RH  099%=      5-min Rain = 0
KJTS 221805Z 05004KT 06/06 A2995 RMK A01 T00640058  RH  098%=      5-min Rain = 0
KJTS 221810Z 06005KT 07/06 A2995 RMK A01 T00650059  RH  099%=      5-min Rain = 0
KJTS 221815Z 05004KT 07/06 A2995 RMK A01 T00650060  RH  099%=      5-min Rain = 0
KJTS 221820Z 06005KT 07/06 A2994 RMK A01 T00650060  RH  099%=      5-min Rain = 0
KJTS 221825Z 06005KT 07/06 A2994 RMK A01 T00660061  RH  099%=      5-min Rain = 0
KJTS 221830Z 06005KT 07/06 A2994 RMK A01 T00660061  RH  099%=      5-min Rain = 0
KJTS 221835Z 06006KT 07/06 A2993 RMK A01 T00680062  RH  099%=      5-min Rain = 0
KJTS 221840Z 06007KT 07/06 A2993 RMK A01 T00660061  RH  099%=      5-min Rain = 0
KJTS 221845Z 07006KT 07/06 A2993 RMK A01 T00680062  RH  099%=      5-min Rain = 0
KJTS 221850Z 07006KT 07/06 A2993 RMK A01 T00680063  RH  099%=      5-min Rain = 0
KJTS 221855Z 07006KT 07/06 A2992 RMK A01 T00690063  RH  099%=      5-min Rain = 0
KJTS 221900Z 06006KT 07/06 A2992 RMK A01 T00690064  RH  099%=      5-min Rain = 0
KJTS 221905Z 07007KT 07/06 A2992 RMK A01 T00690063  RH  099%=      5-min Rain = 0
KJTS 221910Z 07006KT 07/07 A2992 RMK A01 T00700065  RH  099%=      5-min Rain = 0
KJTS 221915Z 06006KT 07/06 A2992 RMK A01 T00700064  RH  099%=      5-min Rain = 0
KJTS 221920Z 06007KT 07/06 A2992 RMK A01 T00690063  RH  099%=      5-min Rain = 0
KJTS 221925Z 06007KT 07/06 A2992 RMK A01 T00690064  RH  099%=      5-min Rain = 0
KJTS 221930Z 07007KT 07/07 A2992 RMK A01 T00700065  RH  099%=      5-min Rain = 0
KJTS 221935Z 07008KT 07/07 A2992 RMK A01 T00700065  RH  099%=      5-min Rain = 0
KJTS 221940Z 08006KT 07/07 A2991 RMK A01 T00710066  RH  099%=      5-min Rain = 0
KJTS 221945Z 08007KT 07/07 A2991 RMK A01 T00710066  RH  099%=      5-min Rain = 0
KJTS 221950Z 06006KT 07/07 A2991 RMK A01 T00720066  RH  099%=      5-min Rain = 0
KJTS 221955Z 06006KT 07/07 A2991 RMK A01 T00720067  RH  099%=      5-min Rain = 0
KJTS 222000Z 08006KT 07/07 A299 RMK A01 T00730067  RH  099%=      5-min Rain = 0
KJTS 222005Z 07007KT 07/07 A299 RMK A01 T00730067  RH  099%=      5-min Rain = 0
KJTS 222010Z 06005KT 07/07 A2989 RMK A01 T00720067  RH  099%=      5-min Rain = 0
KJTS 222015Z 06007KT 07/07 A2989 RMK A01 T00730067  RH  099%=      5-min Rain = 0
KJTS 222020Z 07007KT 07/07 A2989 RMK A01 T00730067  RH  099%=      5-min Rain = 0
KJTS 222025Z 08008KT 07/07 A2989 RMK A01 T00740068  RH  099%=      5-min Rain = 0
KJTS 222030Z 09007KT 07/07 A2988 RMK A01 T00740069  RH  099%=      5-min Rain = 0
KJTS 222035Z 08008KT 08/07 A2988 RMK A01 T00750069  RH  099%=      5-min Rain = 0
KJTS 222040Z 07007KT 08/07 A2988 RMK A01 T00750069  RH  099%=      5-min Rain = 0
KJTS 222045Z 07008KT 08/07 A2987 RMK A01 T00750069  RH  099%=      5-min Rain = 0
KJTS 222050Z 08007KT 08/07 A2988 RMK A01 T00760071  RH  099%=      5-min Rain = 0
KJTS 222055Z 09007KT 08/07 A2987 RMK A01 T00760071  RH  099%=      5-min Rain = 0
KJTS 222100Z 09007KT 08/07 A2987 RMK A01 T00760071  RH  099%=      5-min Rain = 0
KJTS 222105Z 07008KT 08/07 A2987 RMK A01 T00770071  RH  099%=      5-min Rain = 0
KJTS 222110Z 08008KT 08/07 A2987 RMK A01 T00760070  RH  099%=      5-min Rain = 0
KJTS 222115Z 06007KT 08/07 A2987 RMK A01 T00770071  RH  098%=      5-min Rain = 0
KJTS 222120Z 07006KT 08/07 A2987 RMK A01 T00780071  RH  098%=      5-min Rain = 0
KJTS 222125Z 08008KT 08/07 A2987 RMK A01 T00790071  RH  098%=      5-min Rain = 0
KJTS 222130Z 08007KT 08/07 A2987 RMK A01 T00790071  RH  097%=      5-min Rain = 0
KJTS 222135Z 07008KT 08/07 A2987 RMK A01 T00800071  RH  096%=      5-min Rain = 0
KJTS 222140Z 07007KT 08/07 A2987 RMK A01 T00800070  RH  096%=      5-min Rain = 0
KJTS 222145Z 07008KT 08/07 A2987 RMK A01 T00800070  RH  096%=      5-min Rain = 0
KJTS 222150Z 08008KT 08/07 A2986 RMK A01 T00810070  RH  096%=      5-min Rain = 0
KJTS 222155Z 08007KT 08/07 A2986 RMK A01 T00820071  RH  095%=      5-min Rain = 0
KJTS 222200Z 09007KT 08/07 A2986 RMK A01 T00840072  RH  095%=      5-min Rain = 0
KJTS 222205Z 08008KT 09/07 A2986 RMK A01 T00850072  RH  094%=      5-min Rain = 0
KJTS 222210Z 08008KT 09/07 A2986 RMK A01 T00850071  RH  094%=      5-min Rain = 0
KJTS 222215Z 07008KT 09/07 A2985 RMK A01 T00850071  RH  093%=      5-min Rain = 0
KJTS 222220Z 08009KT 09/07 A2985 RMK A01 T00850071  RH  094%=      5-min Rain = 0
KJTS 222225Z 09008KT 09/07 A2985 RMK A01 T00850071  RH  094%=      5-min Rain = 0
KJTS 222230Z 09008KT 09/07 A2985 RMK A01 T00860073  RH  094%=      5-min Rain = 0
KJTS 222235Z 08008KT 09/07 A2985 RMK A01 T00850071  RH  093%=      5-min Rain = 0
KJTS 222240Z 09007KT 09/07 A2985 RMK A01 T00850072  RH  094%=      5-min Rain = 0
KJTS 222245Z 09008KT 09/07 A2985 RMK A01 T00850071  RH  094%=      5-min Rain = 0
KJTS 222250Z 09009KT 09/07 A2985 RMK A01 T00850071  RH  094%=      5-min Rain = 0
KJTS 222255Z 10007KT 09/07 A2985 RMK A01 T00850071  RH  094%=      5-min Rain = 0
KJTS 222300Z 09008KT 09/07 A2985 RMK A01 T00850071  RH  093%=      5-min Rain = 0
KJTS 222305Z 08009KT 09/07 A2984 RMK A01 T00850071  RH  093%=      5-min Rain = 0
KJTS 222310Z 09007KT 09/07 A2984 RMK A01 T00850072  RH  094%=      5-min Rain = 0
KJTS 222315Z 08008KT 09/07 A2984 RMK A01 T00850071  RH  093%=      5-min Rain = 0
KJTS 222320Z 08009KT 08/07 A2983 RMK A01 T00840071  RH  094%=      5-min Rain = 0
KJTS 222325Z 09007KT 09/07 A2984 RMK A01 T00850071  RH  093%=      5-min Rain = 0
KJTS 222330Z 08007KT 09/07 A2984 RMK A01 T00850071  RH  093%=      5-min Rain = 0
KJTS 222335Z 07008KT 09/07 A2983 RMK A01 T00850071  RH  093%=      5-min Rain = 0
KJTS 222340Z 08010KT 08/07 A2983 RMK A01 T00840070  RH  094%=      5-min Rain = 0
KJTS 222345Z 08009KT 08/07 A2983 RMK A01 T00840071  RH  094%=      5-min Rain = 0
KJTS 222350Z 08009KT 08/07 A2982 RMK A01 T00830071  RH  094%=      5-min Rain = 0
KJTS 222355Z 08009KT 08/07 A2982 RMK A01 T00830071  RH  095%=      5-min Rain = 0
KJTS 230000Z 08009KT 08/07 A2982 RMK A01 T00830071  RH  095%=      5-min Rain = 0
KJTS 230005Z 08009KT 08/07 A2982 RMK A01 T00820071  RH  095%=      5-min Rain = 0
KJTS 230010Z 08009KT 08/07 A2982 RMK A01 T00820071  RH  096%=      5-min Rain = 0
KJTS 230015Z 08008KT 08/07 A2983 RMK A01 T00810071  RH  096%=      5-min Rain = 0
KJTS 230020Z 07008KT 08/07 A2982 RMK A01 T00810071  RH  096%=      5-min Rain = 0
KJTS 230025Z 08008KT 08/07 A2983 RMK A01 T00800071  RH  097%=      5-min Rain = 0
KJTS 230030Z 07008KT 08/07 A2982 RMK A01 T00800071  RH  097%=      5-min Rain = 0
KJTS 230035Z 07008KT 08/07 A2982 RMK A01 T00790070  RH  097%=      5-min Rain = 0
KJTS 230040Z 07008KT 08/07 A2982 RMK A01 T00780070  RH  097%=      5-min Rain = 0
KJTS 230045Z 07007KT 08/07 A2982 RMK A01 T00780070  RH  097%=      5-min Rain = 0
KJTS 230050Z 07009KT 08/07 A2982 RMK A01 T00780071  RH  098%=      5-min Rain = 0
KJTS 230055Z 08010KT 08/07 A2982 RMK A01 T00770070  RH  098%=      5-min Rain = 0
KJTS 230100Z 08009KT 08/07 A2982 RMK A01 T00770070  RH  098%=      5-min Rain = 0
KJTS 230105Z 08008KT 08/07 A2982 RMK A01 T00770070  RH  098%=      5-min Rain = 0
KJTS 230110Z 07007KT 08/07 A2982 RMK A01 T00770070  RH  098%=      5-min Rain = 0
KJTS 230115Z 08007KT 08/07 A2982 RMK A01 T00770070  RH  098%=      5-min Rain = 0
KJTS 230120Z 08008KT 08/07 A2982 RMK A01 T00770070  RH  098%=      5-min Rain = 0
KJTS 230125Z 09009KT 08/07 A2983 RMK A01 T00770070  RH  098%=      5-min Rain = 0
KJTS 230130Z 08008KT 08/07 A2983 RMK A01 T00760071  RH  099%=      5-min Rain = 0
KJTS 230135Z 07009KT 08/07 A2983 RMK A01 T00760070  RH  099%=      5-min Rain = 0
KJTS 230140Z 07009KT 08/07 A2983 RMK A01 T00760070  RH  099%=      5-min Rain = 0
KJTS 230145Z 07009KT 08/07 A2983 RMK A01 T00760071  RH  099%=      5-min Rain = 0
KJTS 230150Z 07010KT 08/07 A2983 RMK A01 T00760071  RH  099%=      5-min Rain = 0
KJTS 230155Z 07009KT 08/07 A2983 RMK A01 T00770071  RH  099%=      5-min Rain = 0
KJTS 230200Z 08009KT 08/07 A2984 RMK A01 T00770071  RH  099%=      5-min Rain = 0
KJTS 230205Z 08009KT 08/07 A2984 RMK A01 T00770072  RH  099%=      5-min Rain = 0
KJTS 230210Z 08010KT 08/07 A2984 RMK A01 T00770072  RH  099%=      5-min Rain = 0
KJTS 230215Z 08009KT 08/07 A2983 RMK A01 T00770072  RH  099%=      5-min Rain = 0
KJTS 230220Z 07011KT 08/07 A2983 RMK A01 T00770072  RH  099%=      5-min Rain = 0
KJTS 230225Z 08010KT 08/07 A2983 RMK A01 T00770072  RH  099%=      5-min Rain = 0
KJTS 230230Z 08009KT 08/07 A2983 RMK A01 T00770072  RH  099%=      5-min Rain = 0
KJTS 230235Z 07009KT 08/07 A2982 RMK A01 T00770072  RH  099%=      5-min Rain = 0
KJTS 230240Z 07010KT 08/07 A2982 RMK A01 T00770072  RH  099%=      5-min Rain = 0
KJTS 230245Z 08010KT 08/07 A2982 RMK A01 T00770072  RH  099%=      5-min Rain = 0
KJTS 230250Z 08009KT 08/07 A2982 RMK A01 T00770072  RH  099%=      5-min Rain = 0
KJTS 230255Z 08009KT 08/07 A2981 RMK A01 T00770072  RH  099%=      5-min Rain = 0
KJTS 230300Z 08011KT 08/07 A2981 RMK A01 T00770072  RH  099%=      5-min Rain = 0
KJTS 230305Z 08010KT 08/07 A2981 RMK A01 T00770072  RH  099%=      5-min Rain = 0
KJTS 230310Z 08010KT 08/07 A298 RMK A01 T00770072  RH  099%=      5-min Rain = 0
KJTS 230315Z 08010KT 08/07 A2979 RMK A01 T00770072  RH  099%=      5-min Rain = 0
KJTS 230320Z 08010KT 08/07 A2979 RMK A01 T00770073  RH  099%=      5-min Rain = 0
KJTS 230325Z 08013KT 08/07 A2979 RMK A01 T00770072  RH  099%=      5-min Rain = 0
KJTS 230330Z 08012KT 08/07 A2979 RMK A01 T00770072  RH  099%=      5-min Rain = 0
KJTS 230335Z 08011KT 08/07 A2978 RMK A01 T00770072  RH  099%=      5-min Rain = 0
KJTS 230340Z 09012KT 08/07 A2978 RMK A01 T00770072  RH  099%=      5-min Rain = 0
KJTS 230345Z 09011KT 08/07 A2978 RMK A01 T00770072  RH  100%=      5-min Rain = 0
KJTS 230350Z 09009KT 08/07 A2978 RMK A01 T00770072  RH  100%=      5-min Rain = 0
KJTS 230355Z 09011KT 08/07 A2978 RMK A01 T00770072  RH  100%=      5-min Rain = 0
KJTS 230400Z 08011KT 08/07 A2978 RMK A01 T00770072  RH  100%=      5-min Rain = 0
KJTS 230405Z 08010KT 08/07 A2977 RMK A01 T00770072  RH  100%=      5-min Rain = 0
KJTS 230410Z 09010KT 08/07 A2977 RMK A01 T00770072  RH  100%=      5-min Rain = 0
KJTS 230415Z 09011KT 08/07 A2977 RMK A01 T00770072  RH  100%=      5-min Rain = 0
KJTS 230420Z 10013KT 08/07 A2977 RMK A01 T00770072  RH  100%=      5-min Rain = 0
KJTS 230425Z 09013KT 08/07 A2977 RMK A01 T00770072  RH  100%=      5-min Rain = 0
KJTS 230430Z 09011KT 08/07 A2977 RMK A01 T00760072  RH  100%=      5-min Rain = 0
KJTS 230435Z 09012KT 08/07 A2977 RMK A01 T00760072  RH  100%=      5-min Rain = 0
KJTS 230440Z 08012KT 08/07 A2977 RMK A01 T00760072  RH  100%=      5-min Rain = 0
KJTS 230445Z 08012KT 08/07 A2976 RMK A01 T00760072  RH  100%=      5-min Rain = 0
KJTS 230450Z 08010KT 08/07 A2976 RMK A01 T00760072  RH  100%=      5-min Rain = 0
KJTS 230455Z 08011KT 08/07 A2976 RMK A01 T00760072  RH  100%=      5-min Rain = 0
KJTS 230500Z 08009KT 08/07 A2976 RMK A01 T00760072  RH  100%=      5-min Rain = 0
KJTS 230505Z 08009KT 08/07 A2976 RMK A01 T00760072  RH  100%=      5-min Rain = 0
KJTS 230510Z 08010G15KT 08/07 A2975 RMK A01 T00760072  RH  100%=      5-min Rain = 0
KJTS 230515Z 08011KT 08/07 A2975 RMK A01 T00760072  RH  100%=      5-min Rain = 0
KJTS 230520Z 08010KT 08/07 A2975 RMK A01 T00760072  RH  100%=      5-min Rain = 0
KJTS 230525Z 08009G14KT 08/07 A2975 RMK A01 T00760072  RH  100%=      5-min Rain = 0
KJTS 230530Z 07008KT 08/07 A2975 RMK A01 T00770072  RH  100%=      5-min Rain = 0
KJTS 230535Z 08009KT 08/07 A2974 RMK A01 T00770072  RH  100%=      5-min Rain = 0
KJTS 230540Z 07009KT 08/07 A2973 RMK A01 T00770072  RH  100%=      5-min Rain = 0.01
KJTS 230545Z 06009KT 08/07 A2972 RMK A01 T00760072  RH  100%=      5-min Rain = 0
KJTS 230550Z 06009KT 08/07 A2972 RMK A01 T00760072  RH  100%=      5-min Rain = 0
KJTS 230555Z 06008KT 08/07 A2971 RMK A01 T00760072  RH  100%=      5-min Rain = 0

Page generated in 0.0431 seconds.